Time;durP1;ratioP1;P1;durP2;ratioP2;P2;SDS_P1;SDS_P2;PMS_P1;PMS_P2;Temp;Humidity;BMP_temperature;BMP_pressure;BME280_temperature;BME280_humidity;BME280_pressure;Samples;Min_cycle;Max_cycle;Signal;HPM_P1;HPM_P2
2023/12/24 00:01:25;;;;;;;12.70;3.58;;;10.90;99.90;;;-144.20;100.00;62730.56;4168483;28;20053;-74
2023/12/24 00:03:26;;;;;;;12.30;2.33;;;11.00;99.90;;;-144.20;100.00;62730.56;4168785;28;20037;-73
2023/12/24 00:05:27;;;;;;;12.32;2.83;;;11.10;99.90;;;-144.20;100.00;62730.56;4168670;28;20029;-74
2023/12/24 00:07:28;;;;;;;17.95;2.40;;;11.10;99.90;;;-144.20;100.00;62730.56;4169502;28;20025;-73
2023/12/24 00:09:28;;;;;;;13.77;3.55;;;11.10;99.90;;;-144.20;100.00;62730.56;4168658;28;20021;-74
2023/12/24 00:11:30;;;;;;;17.20;4.05;;;11.10;99.90;;;-144.20;100.00;62730.56;4168536;28;20480;-74
2023/12/24 00:13:31;;;;;;;18.30;3.08;;;11.10;99.90;;;-144.20;100.00;62730.56;4201846;28;20446;-73
2023/12/24 00:15:33;;;;;;;17.77;2.60;;;11.10;99.90;;;-144.20;100.00;62730.56;4165699;28;20025;-74
2023/12/24 00:17:34;;;;;;;16.35;3.70;;;11.10;99.90;;;-144.20;100.00;62730.56;4169580;28;20049;-74
2023/12/24 00:19:34;;;;;;;28.08;4.85;;;11.10;99.90;;;-144.20;100.00;62730.56;4168580;28;20072;-74
2023/12/24 00:21:35;;;;;;;16.80;2.67;;;11.20;99.90;;;-144.20;100.00;62730.56;4169790;28;20493;-74
2023/12/24 00:23:36;;;;;;;16.10;3.75;;;11.20;99.90;;;-144.20;100.00;62730.56;4169653;28;20428;-74
2023/12/24 00:25:38;;;;;;;12.18;3.13;;;11.20;99.90;;;-144.20;100.00;62730.56;4169624;28;20021;-74
2023/12/24 00:27:39;;;;;;;11.25;3.33;;;11.20;99.90;;;-144.20;100.00;62730.56;4169664;28;20120;-73
2023/12/24 00:29:40;;;;;;;20.77;3.58;;;11.20;99.90;;;-144.20;100.00;62730.56;4169548;28;20025;-74
2023/12/24 00:31:41;;;;;;;13.20;2.67;;;11.20;99.90;;;-144.20;100.00;62730.56;4201388;28;20032;-74
2023/12/24 00:33:42;;;;;;;14.25;2.95;;;11.20;99.90;;;-144.20;100.00;62730.56;4168164;28;20045;-74
2023/12/24 00:35:42;;;;;;;12.13;3.17;;;11.30;99.90;;;-144.20;100.00;62730.56;4157186;28;20065;-74
2023/12/24 00:37:43;;;;;;;10.50;3.17;;;11.20;99.90;;;-144.20;100.00;62730.56;4169518;28;20504;-74
2023/12/24 00:39:44;;;;;;;13.27;3.33;;;11.20;99.90;;;-144.20;100.00;62730.56;4169444;28;20034;-74
2023/12/24 00:41:45;;;;;;;14.57;3.05;;;11.20;99.90;;;-144.20;100.00;62730.56;4168034;28;20036;-74
2023/12/24 00:43:46;;;;;;;12.80;3.65;;;11.30;99.90;;;-144.20;100.00;62730.56;4169130;28;20060;-74
2023/12/24 00:45:47;;;;;;;14.73;3.00;;;11.30;99.90;;;-144.20;100.00;62730.56;4167959;28;20021;-73
2023/12/24 00:47:48;;;;;;;14.27;3.70;;;11.30;99.90;;;-144.20;100.00;62730.56;4169427;28;20025;-74
2023/12/24 00:49:49;;;;;;;15.38;3.83;;;11.30;99.90;;;-144.20;100.00;62730.56;4168156;28;20025;-74
2023/12/24 00:51:51;;;;;;;10.85;2.28;;;11.30;99.90;;;-144.20;100.00;62730.56;4168532;28;20020;-74
2023/12/24 00:53:52;;;;;;;14.35;3.05;;;11.30;99.90;;;-144.20;100.00;62730.56;4169189;28;20209;-74
2023/12/24 00:55:53;;;;;;;7.88;2.22;;;11.30;99.90;;;-144.20;100.00;62730.56;4161483;28;20560;-73
2023/12/24 00:57:54;;;;;;;14.85;3.50;;;11.30;99.90;;;-144.20;100.00;62730.56;4167853;28;20036;-74
2023/12/24 00:59:55;;;;;;;18.75;3.28;;;11.30;99.90;;;-144.20;100.00;62730.56;4167739;28;20022;-73
2023/12/24 01:01:56;;;;;;;16.95;2.30;;;11.30;99.90;;;-144.20;100.00;62730.56;4168117;28;20037;-73
2023/12/24 01:03:57;;;;;;;15.68;3.67;;;11.30;99.90;;;-144.20;100.00;62730.56;4168941;28;20036;-74
2023/12/24 01:05:58;;;;;;;12.13;3.75;;;11.30;99.90;;;-144.20;100.00;62730.56;4167713;28;20021;-74
2023/12/24 01:07:58;;;;;;;19.70;4.22;;;11.30;99.90;;;-144.20;100.00;62730.56;4168473;28;20024;-74
2023/12/24 01:09:59;;;;;;;15.65;4.30;;;11.30;99.90;;;-144.20;100.00;62730.56;4169074;28;20060;-74
2023/12/24 01:12:00;;;;;;;14.82;3.67;;;11.30;99.90;;;-144.20;100.00;62730.56;4167811;28;20505;-73
2023/12/24 01:14:01;;;;;;;18.88;3.97;;;11.30;99.90;;;-144.20;100.00;62730.56;4167708;28;20128;-74
2023/12/24 01:16:02;;;;;;;14.10;2.00;;;11.30;99.90;;;-144.20;100.00;62730.56;4168572;28;20049;-74
2023/12/24 01:18:03;;;;;;;16.55;4.07;;;11.30;99.90;;;-144.20;100.00;62730.56;4167549;28;20096;-74
2023/12/24 01:20:18;;;;;;;17.63;2.55;;;11.30;99.90;;;-144.20;100.00;62730.56;4168904;28;20025;-74
2023/12/24 01:22:19;;;;;;;13.90;4.13;;;11.30;99.90;;;-144.20;100.00;62730.56;4167794;28;20029;-74
2023/12/24 01:24:20;;;;;;;11.38;3.53;;;11.30;99.90;;;-144.20;100.00;62730.56;4168284;28;20032;-74
2023/12/24 01:26:21;;;;;;;15.23;3.50;;;11.30;99.90;;;-144.20;100.00;62730.56;4167506;28;20058;-74
2023/12/24 01:28:22;;;;;;;14.88;3.47;;;11.30;99.90;;;-144.20;100.00;62730.56;4168011;28;20025;-74
2023/12/24 01:30:23;;;;;;;17.15;3.15;;;11.30;99.90;;;-144.20;100.00;62730.56;4167552;28;20104;-74
2023/12/24 01:32:23;;;;;;;20.23;3.67;;;11.30;99.90;;;-144.20;100.00;62730.56;4168346;28;20025;-74
2023/12/24 01:34:24;;;;;;;15.73;3.45;;;11.30;99.90;;;-144.20;100.00;62730.56;4165542;28;20105;-74
2023/12/24 01:36:25;;;;;;;16.52;3.70;;;11.30;99.90;;;-144.20;100.00;62730.56;4192529;28;20036;-74
2023/12/24 01:38:26;;;;;;;15.52;3.22;;;11.30;99.90;;;-144.20;100.00;62730.56;4162856;28;20033;-73
2023/12/24 01:40:27;;;;;;;14.98;2.85;;;11.30;99.90;;;-144.20;100.00;62730.56;4168575;28;20033;-74
2023/12/24 01:42:27;;;;;;;14.05;2.85;;;11.10;99.90;;;-144.20;100.00;62730.56;4167677;28;20036;-74
2023/12/24 01:44:28;;;;;;;15.57;3.03;;;11.10;99.90;;;-144.20;100.00;62730.56;4150975;28;20485;-74
2023/12/24 01:46:31;;;;;;;17.70;3.35;;;11.00;99.90;;;-144.20;100.00;62730.56;4168472;28;20477;-74
2023/12/24 01:48:32;;;;;;;17.95;3.40;;;10.90;99.90;;;-144.20;100.00;62730.56;4183971;28;20032;-74
2023/12/24 01:50:35;;;;;;;22.40;4.05;;;10.80;99.90;;;-144.20;100.00;62730.56;4167461;28;20033;-74
2023/12/24 01:52:37;;;;;;;18.88;3.88;;;10.80;99.90;;;-144.20;100.00;62730.56;4199857;28;20034;-74
2023/12/24 01:54:38;;;;;;;18.02;4.80;;;10.70;99.90;;;-144.20;100.00;62730.56;4200251;28;20051;-74
2023/12/24 01:56:42;;;;;;;13.38;2.72;;;10.60;99.90;;;-144.20;100.00;62730.56;4167240;28;20037;-74
2023/12/24 01:58:43;;;;;;;15.75;3.67;;;10.60;99.90;;;-144.20;100.00;62730.56;4150964;28;20033;-74
2023/12/24 02:00:45;;;;;;;12.50;2.80;;;10.50;99.90;;;-144.20;100.00;62730.56;4168332;28;20084;-74
2023/12/24 02:02:49;;;;;;;12.38;4.00;;;10.50;99.90;;;-144.20;100.00;62730.56;4167338;28;20398;-74
2023/12/24 02:04:50;;;;;;;15.68;3.83;;;10.50;99.90;;;-144.20;100.00;62730.56;4168199;28;20034;-73
2023/12/24 02:06:51;;;;;;;16.65;2.78;;;10.40;99.90;;;-144.20;100.00;62730.56;4168394;28;20448;-74
2023/12/24 02:08:52;;;;;;;19.02;4.00;;;10.50;99.90;;;-144.20;100.00;62730.56;4168002;28;20037;-74
2023/12/24 02:10:53;;;;;;;22.30;4.03;;;10.50;99.90;;;-144.20;100.00;62730.56;4168390;28;20165;-74
2023/12/24 02:12:54;;;;;;;12.68;3.58;;;10.40;99.90;;;-144.20;100.00;62730.56;4169527;28;20399;-74
2023/12/24 02:14:54;;;;;;;16.17;3.78;;;10.30;99.90;;;-144.20;100.00;62730.56;4170276;28;20037;-74
2023/12/24 02:16:59;;;;;;;12.32;2.83;;;10.30;99.90;;;-144.20;100.00;62730.56;4171434;28;20116;-74
2023/12/24 02:19:00;;;;;;;12.60;3.47;;;10.20;99.90;;;-144.20;100.00;62730.56;4171415;28;20083;-74
2023/12/24 02:21:03;;;;;;;12.10;2.55;;;10.10;99.90;;;-144.20;100.00;62730.56;4175522;28;20512;-74
2023/12/24 02:23:04;;;;;;;14.20;2.55;;;10.10;99.90;;;-144.20;100.00;62730.56;4170379;28;20040;-73
2023/12/24 02:25:06;;;;;;;18.52;3.78;;;10.00;99.90;;;-144.20;100.00;62730.56;4171656;28;20022;-74
2023/12/24 02:27:49;;;;;;;15.88;3.97;;;9.90;99.90;;;-144.20;100.00;62730.56;4170269;28;20080;-74
2023/12/24 02:29:56;;;;;;;15.65;2.70;;;9.90;99.90;;;-144.20;100.00;62730.56;4171405;28;20584;-74
2023/12/24 02:32:12;;;;;;;14.55;3.20;;;10.00;99.90;;;-144.20;100.00;62730.56;4202383;28;20070;-73
2023/12/24 02:34:17;;;;;;;18.08;3.78;;;10.00;99.90;;;-144.20;100.00;62730.56;4201213;28;20055;-73
2023/12/24 02:36:20;;;;;;;14.15;2.97;;;10.00;99.90;;;-144.20;100.00;62730.56;4170379;28;20029;-73
2023/12/24 02:38:20;;;;;;;16.35;4.03;;;10.00;99.90;;;-144.20;100.00;62730.56;4170244;28;20044;-73
2023/12/24 02:40:21;;;;;;;17.48;2.95;;;10.00;99.90;;;-144.20;100.00;62730.56;4170053;28;20025;-74
2023/12/24 02:42:22;;;;;;;18.13;2.83;;;10.00;99.90;;;-144.20;100.00;62730.56;4171270;28;20029;-73
2023/12/24 02:44:23;;;;;;;28.35;4.70;;;10.10;99.90;;;-144.20;100.00;62730.56;4169105;28;20072;-74
2023/12/24 02:46:24;;;;;;;21.35;4.05;;;10.00;99.90;;;-144.20;100.00;62730.56;4165117;28;20029;-74
2023/12/24 02:48:26;;;;;;;20.02;3.97;;;10.00;99.90;;;-144.20;100.00;62730.56;4170974;28;20075;-74
2023/12/24 02:50:27;;;;;;;17.63;3.45;;;10.00;99.90;;;-144.20;100.00;62730.56;4170165;28;20611;-74
2023/12/24 02:52:27;;;;;;;25.35;2.88;;;9.90;99.90;;;-144.20;100.00;62730.56;4171069;28;20021;-74
2023/12/24 02:54:28;;;;;;;18.42;3.10;;;9.90;99.90;;;-144.20;100.00;62730.56;4170985;28;20075;-74
2023/12/24 02:56:36;;;;;;;20.15;4.03;;;9.90;99.90;;;-144.20;100.00;62730.56;4169691;28;20036;-74
2023/12/24 02:58:37;;;;;;;23.15;3.63;;;9.90;99.90;;;-144.20;100.00;62730.56;4169674;28;20049;-73
2023/12/24 03:00:37;;;;;;;14.75;2.75;;;9.90;99.90;;;-144.20;100.00;62730.56;4170705;28;20036;-74
2023/12/24 03:02:38;;;;;;;15.85;2.95;;;9.80;99.90;;;-144.20;100.00;62730.56;4171063;28;20029;-73
2023/12/24 03:04:39;;;;;;;12.60;2.75;;;9.90;99.90;;;-144.20;100.00;62730.56;4169313;28;20018;-74
2023/12/24 03:06:40;;;;;;;19.35;3.20;;;9.80;99.90;;;-144.20;100.00;62730.56;4153345;28;20033;-73
2023/12/24 03:08:41;;;;;;;20.88;3.13;;;9.80;99.90;;;-144.20;100.00;62730.56;4170962;28;20028;-74
2023/12/24 03:10:42;;;;;;;17.20;3.47;;;9.80;99.90;;;-144.20;100.00;62730.56;4169642;28;20481;-74
2023/12/24 03:12:42;;;;;;;18.95;2.83;;;9.80;99.90;;;-144.20;100.00;62730.56;4170686;28;20029;-74
2023/12/24 03:14:43;;;;;;;19.85;2.70;;;9.90;99.90;;;-144.20;100.00;62730.56;4169754;28;20473;-74
2023/12/24 03:16:44;;;;;;;23.88;3.50;;;9.80;99.90;;;-144.20;100.00;62730.56;4170909;28;20026;-74
2023/12/24 03:18:45;;;;;;;22.92;4.43;;;9.80;99.90;;;-144.20;100.00;62730.56;4170776;28;20057;-74
2023/12/24 03:20:46;;;;;;;25.58;3.67;;;9.80;99.90;;;-144.20;100.00;62730.56;4169376;28;20503;-74
2023/12/24 03:22:47;;;;;;;18.20;3.45;;;9.80;99.90;;;-144.20;100.00;62730.56;4169553;28;20033;-74
2023/12/24 03:24:48;;;;;;;17.42;3.15;;;9.80;99.90;;;-144.20;100.00;62730.56;4196860;28;20025;-74
2023/12/24 03:26:49;;;;;;;17.77;3.85;;;9.70;99.90;;;-144.20;100.00;62730.56;4163423;28;20025;-73
2023/12/24 03:28:51;;;;;;;19.73;4.25;;;9.60;99.90;;;-144.20;100.00;62730.56;4170708;28;20088;-74
2023/12/24 03:30:52;;;;;;;12.18;2.70;;;9.70;99.90;;;-144.20;100.00;62730.56;4169009;28;20034;-74
2023/12/24 03:32:53;;;;;;;15.82;3.78;;;9.60;99.90;;;-144.20;100.00;62730.56;4169404;28;20493;-74
2023/12/24 03:34:54;;;;;;;25.02;4.15;;;9.60;99.90;;;-144.20;100.00;62730.56;4163745;28;20038;-73
2023/12/24 03:36:55;;;;;;;23.73;4.28;;;9.60;99.90;;;-144.20;100.00;62730.56;4167210;28;20059;-73
2023/12/24 03:38:55;;;;;;;26.00;3.72;;;9.60;99.90;;;-144.20;100.00;62730.56;4170383;28;20033;-74
2023/12/24 03:40:56;;;;;;;22.95;3.60;;;9.60;99.90;;;-144.20;100.00;62730.56;4152797;28;20033;-73
2023/12/24 03:42:57;;;;;;;17.23;3.15;;;9.60;99.90;;;-144.20;100.00;62730.56;4152693;28;20029;-74
2023/12/24 03:44:58;;;;;;;23.90;4.20;;;9.60;99.90;;;-144.20;100.00;62730.56;4170194;28;20044;-74
2023/12/24 03:46:59;;;;;;;19.52;3.78;;;9.60;99.90;;;-144.20;100.00;62730.56;4170136;28;20037;-74
2023/12/24 03:48:59;;;;;;;20.70;4.75;;;9.60;99.90;;;-144.20;100.00;62730.56;4202109;28;20020;-74
2023/12/24 03:51:00;;;;;;;18.65;3.70;;;9.60;99.90;;;-144.20;100.00;62730.56;4185520;28;20025;-74
2023/12/24 03:53:01;;;;;;;22.90;3.90;;;9.50;99.90;;;-144.20;100.00;62730.56;4170252;28;20029;-73
2023/12/24 03:55:02;;;;;;;23.88;4.88;;;9.50;99.90;;;-144.20;100.00;62730.56;4168770;28;20034;-74
2023/12/24 03:57:03;;;;;;;22.98;3.50;;;9.50;99.90;;;-144.20;100.00;62730.56;4168875;28;20045;-74
2023/12/24 03:59:04;;;;;;;16.25;3.28;;;9.50;99.90;;;-144.20;100.00;62730.56;4185273;28;20029;-74
2023/12/24 04:01:09;;;;;;;18.40;4.80;;;9.50;99.90;;;-144.20;100.00;62730.56;4152151;28;20037;-74
2023/12/24 04:03:10;;;;;;;26.85;4.03;;;9.40;99.90;;;-144.20;100.00;62730.56;4152234;28;20034;-74
2023/12/24 04:05:11;;;;;;;23.00;5.07;;;9.40;99.90;;;-144.20;100.00;62730.56;4177799;28;20463;-73
2023/12/24 04:07:11;;;;;;;15.48;4.03;;;9.40;99.90;;;-144.20;100.00;62730.56;4162607;28;20052;-73
2023/12/24 04:09:12;;;;;;;19.55;4.78;;;9.40;99.90;;;-144.20;100.00;62730.56;4169909;28;20033;-74
2023/12/24 04:11:17;;;;;;;30.48;5.70;;;9.30;99.90;;;-144.20;100.00;62730.56;4152108;28;20497;-73
2023/12/24 04:13:18;;;;;;;19.13;3.70;;;9.30;99.90;;;-144.20;100.00;62730.56;4168725;28;20025;-73
2023/12/24 04:15:19;;;;;;;24.25;3.75;;;9.30;99.90;;;-144.20;100.00;62730.56;4160136;28;20461;-74
2023/12/24 04:17:20;;;;;;;19.70;3.72;;;9.30;99.90;;;-144.20;100.00;62730.56;4165247;28;20071;-73
2023/12/24 04:19:21;;;;;;;15.48;3.92;;;9.30;99.90;;;-144.20;100.00;62730.56;4169684;28;20033;-74
2023/12/24 04:21:22;;;;;;;29.70;5.07;;;9.30;99.90;;;-144.20;100.00;62730.56;4171751;28;20100;-73
2023/12/24 04:23:23;;;;;;;21.65;3.95;;;9.30;99.90;;;-144.20;100.00;62730.56;4168383;28;20044;-74
2023/12/24 04:25:24;;;;;;;23.50;3.45;;;9.20;99.90;;;-144.20;100.00;62730.56;4168443;28;20390;-74
2023/12/24 04:27:25;;;;;;;19.38;4.72;;;9.20;99.90;;;-144.20;100.00;62730.56;4169498;28;20025;-74
2023/12/24 04:29:26;;;;;;;23.00;4.63;;;9.20;99.90;;;-144.20;100.00;62730.56;4168416;28;20028;-74
2023/12/24 04:31:27;;;;;;;27.45;4.45;;;9.20;99.90;;;-144.20;100.00;62730.56;4169400;28;20017;-73
2023/12/24 04:33:29;;;;;;;24.50;3.55;;;9.20;99.90;;;-144.20;100.00;62730.56;4169567;28;20025;-73
2023/12/24 04:35:30;;;;;;;16.30;3.33;;;9.20;99.90;;;-144.20;100.00;62730.56;4160246;28;20030;-74
2023/12/24 04:37:31;;;;;;;26.15;3.63;;;9.20;99.90;;;-144.20;100.00;62730.56;4168354;28;20025;-73
2023/12/24 04:39:32;;;;;;;20.33;4.15;;;9.20;99.90;;;-144.20;100.00;62730.56;4169685;28;20029;-74
2023/12/24 04:41:33;;;;;;;20.35;4.35;;;9.20;99.90;;;-144.20;100.00;62730.56;4168247;28;20030;-74
2023/12/24 04:43:33;;;;;;;24.40;3.92;;;9.20;99.90;;;-144.20;100.00;62730.56;4167935;28;20036;-73
2023/12/24 04:45:34;;;;;;;23.08;3.80;;;9.20;99.90;;;-144.20;100.00;62730.56;4169085;28;20753;-74
2023/12/24 04:47:35;;;;;;;21.42;4.03;;;9.20;99.90;;;-144.20;100.00;62730.56;4169524;28;20436;-74
2023/12/24 04:49:37;;;;;;;20.42;3.40;;;9.20;99.90;;;-144.20;100.00;62730.56;4168327;28;20018;-74
2023/12/24 04:51:38;;;;;;;19.95;4.85;;;9.30;99.90;;;-144.20;100.00;62730.56;4167243;28;20025;-74
2023/12/24 04:53:39;;;;;;;19.08;3.53;;;9.30;99.90;;;-144.20;100.00;62730.56;4168081;28;20440;-73
2023/12/24 04:55:40;;;;;;;27.08;4.38;;;9.30;99.90;;;-144.20;100.00;62730.56;4169103;28;20033;-74
2023/12/24 04:57:41;;;;;;;24.42;3.42;;;9.30;99.90;;;-144.20;100.00;62730.56;4167509;28;20567;-74
2023/12/24 04:59:41;;;;;;;22.88;4.57;;;9.30;99.90;;;-144.20;100.00;62730.56;4168087;28;20547;-74
2023/12/24 05:01:42;;;;;;;25.95;4.30;;;9.40;99.90;;;-144.20;100.00;62730.56;4168705;28;20405;-73
2023/12/24 05:03:44;;;;;;;27.05;4.13;;;9.40;99.90;;;-144.20;100.00;62730.56;4167978;28;20034;-74
2023/12/24 05:05:44;;;;;;;21.15;4.05;;;9.40;99.90;;;-144.20;100.00;62730.56;4169030;28;20036;-73
2023/12/24 05:07:45;;;;;;;24.65;3.95;;;9.40;99.90;;;-144.20;100.00;62730.56;4167926;28;20029;-73
2023/12/24 05:09:46;;;;;;;26.90;4.55;;;9.50;99.90;;;-144.20;100.00;62730.56;4168848;28;20029;-74
2023/12/24 05:11:47;;;;;;;30.50;4.97;;;9.50;99.90;;;-144.20;100.00;62730.56;4167892;28;20108;-73
2023/12/24 05:13:48;;;;;;;37.28;4.95;;;9.50;99.90;;;-144.20;100.00;62730.56;4167882;28;20546;-74
2023/12/24 05:15:49;;;;;;;33.10;5.63;;;9.60;99.90;;;-144.20;100.00;62730.56;4188836;28;20542;-74
2023/12/24 05:17:50;;;;;;;21.98;3.35;;;9.60;99.90;;;-144.20;100.00;62730.56;4166710;28;20046;-74
2023/12/24 05:19:51;;;;;;;27.75;4.88;;;9.60;99.90;;;-144.20;100.00;62730.56;4167799;28;20045;-74
2023/12/24 05:21:52;;;;;;;24.73;3.78;;;9.60;99.90;;;-144.20;100.00;62730.56;4167801;28;20033;-74
2023/12/24 05:23:53;;;;;;;29.60;4.60;;;9.60;99.90;;;-144.20;100.00;62730.56;4167586;28;20168;-74
2023/12/24 05:25:54;;;;;;;25.55;4.22;;;9.60;99.90;;;-144.20;100.00;62730.56;4168639;28;20037;-73
2023/12/24 05:27:55;;;;;;;20.95;4.63;;;9.60;99.90;;;-144.20;100.00;62730.56;4184064;28;20021;-74
2023/12/24 05:29:56;;;;;;;29.70;4.70;;;9.60;99.90;;;-144.20;100.00;62730.56;4168744;28;20469;-74
2023/12/24 05:31:57;;;;;;;24.25;5.00;;;9.60;99.90;;;-144.20;100.00;62730.56;4168508;28;20025;-74
2023/12/24 05:33:58;;;;;;;25.13;4.07;;;9.60;99.90;;;-144.20;100.00;62730.56;4183774;28;20036;-73
2023/12/24 05:35:59;;;;;;;30.52;4.70;;;9.60;99.90;;;-144.20;100.00;62730.56;4160256;28;20025;-74
2023/12/24 05:38:00;;;;;;;28.17;5.75;;;9.60;99.90;;;-144.20;100.00;62730.56;4168698;28;20083;-74
2023/12/24 05:40:01;;;;;;;37.83;4.35;;;9.60;99.90;;;-144.20;100.00;62730.56;4168923;28;20022;-74
2023/12/24 05:42:01;;;;;;;30.50;3.83;;;9.60;99.90;;;-144.20;100.00;62730.56;4167379;28;20036;-74
2023/12/24 05:44:02;;;;;;;34.75;4.35;;;9.60;99.90;;;-144.20;100.00;62730.56;4168793;28;20033;-74
2023/12/24 05:46:11;;;;;;;37.92;4.97;;;9.60;99.90;;;-144.20;100.00;62730.56;4168313;28;20105;-74
2023/12/24 05:48:11;;;;;;;40.13;5.45;;;9.60;99.90;;;-144.20;100.00;62730.56;4171617;28;20423;-74
2023/12/24 05:50:13;;;;;;;29.98;3.92;;;9.70;99.90;;;-144.20;100.00;62730.56;4172744;28;20026;-73
2023/12/24 05:52:14;;;;;;;18.60;4.43;;;9.70;99.90;;;-144.20;100.00;62730.56;4172576;28;20045;-73
2023/12/24 05:54:14;;;;;;;34.97;5.90;;;9.70;99.90;;;-144.20;100.00;62730.56;4172765;28;20025;-73
2023/12/24 05:56:15;;;;;;;37.17;4.95;;;9.80;99.90;;;-144.20;100.00;62730.56;4172623;28;20029;-73
2023/12/24 05:58:17;;;;;;;28.33;5.47;;;9.80;99.90;;;-144.20;100.00;62730.56;4172837;28;20034;-74
2023/12/24 06:00:18;;;;;;;28.40;5.05;;;9.90;99.90;;;-144.20;100.00;62730.56;4173850;28;20033;-74
2023/12/24 06:02:19;;;;;;;24.85;3.95;;;9.90;99.90;;;-144.20;100.00;62730.56;4174112;28;20060;-73
2023/12/24 06:04:20;;;;;;;31.13;4.47;;;9.90;99.90;;;-144.20;100.00;62730.56;4173931;28;20036;-74
2023/12/24 06:06:21;;;;;;;34.08;4.75;;;9.90;99.90;;;-144.20;100.00;62730.56;4160789;28;20034;-74
2023/12/24 06:08:23;;;;;;;22.25;4.18;;;9.90;99.90;;;-144.20;100.00;62730.56;4172790;28;20026;-74
2023/12/24 06:10:24;;;;;;;29.17;4.22;;;9.80;99.90;;;-144.20;100.00;62730.56;4174055;28;20373;-74
2023/12/24 06:12:25;;;;;;;25.08;5.22;;;9.80;99.90;;;-144.20;100.00;62730.56;4167122;28;20024;-73
2023/12/24 06:14:26;;;;;;;30.17;4.55;;;9.80;99.90;;;-144.20;100.00;62730.56;4174077;28;20037;-74
2023/12/24 06:16:28;;;;;;;20.02;3.78;;;9.80;99.90;;;-144.20;100.00;62730.56;4172425;28;20021;-74
2023/12/24 06:18:29;;;;;;;31.00;6.82;;;9.70;99.90;;;-144.20;100.00;62730.56;4172527;28;20057;-74
2023/12/24 06:20:31;;;;;;;41.22;6.38;;;9.70;99.90;;;-144.20;100.00;62730.56;4174164;28;20025;-74
2023/12/24 06:22:31;;;;;;;32.92;5.55;;;9.70;99.90;;;-144.20;100.00;62730.56;4172714;28;20087;-74
2023/12/24 06:24:32;;;;;;;32.58;6.35;;;9.60;99.90;;;-144.20;100.00;62730.56;4172048;28;20021;-74
2023/12/24 06:26:33;;;;;;;29.83;4.35;;;9.60;99.90;;;-144.20;100.00;62730.56;4156148;28;20036;-74
2023/12/24 06:28:34;;;;;;;26.88;4.32;;;9.60;99.90;;;-144.20;100.00;62730.56;4172594;28;20477;-74
2023/12/24 06:30:35;;;;;;;33.17;5.18;;;9.60;99.90;;;-144.20;100.00;62730.56;4155968;28;20030;-74
2023/12/24 06:32:37;;;;;;;28.55;5.35;;;9.60;99.90;;;-144.20;100.00;62730.56;4173780;28;20033;-74
2023/12/24 06:34:38;;;;;;;24.65;4.93;;;9.60;99.90;;;-144.20;100.00;62730.56;4173131;28;20033;-73
2023/12/24 06:36:39;;;;;;;33.42;6.47;;;9.60;99.90;;;-144.20;100.00;62730.56;4168870;28;20025;-74
2023/12/24 06:38:39;;;;;;;33.22;7.05;;;9.60;99.90;;;-144.20;100.00;62730.56;4172330;28;20032;-74
2023/12/24 06:40:40;;;;;;;30.85;4.70;;;9.60;99.90;;;-144.20;100.00;62730.56;4172560;28;20034;-74
2023/12/24 06:42:41;;;;;;;26.92;4.20;;;9.60;99.90;;;-144.20;100.00;62730.56;4173732;28;20021;-74
2023/12/24 06:44:42;;;;;;;25.85;4.70;;;9.60;99.90;;;-144.20;100.00;62730.56;4172276;28;20033;-73
2023/12/24 06:46:43;;;;;;;21.70;3.97;;;9.50;99.90;;;-144.20;100.00;62730.56;4173306;28;20041;-74
2023/12/24 06:48:44;;;;;;;40.72;4.80;;;9.60;99.90;;;-144.20;100.00;62730.56;4173790;28;20040;-74
2023/12/24 06:50:44;;;;;;;36.40;5.63;;;9.50;99.90;;;-144.20;100.00;62730.56;4173821;28;20373;-74
2023/12/24 06:52:45;;;;;;;32.63;5.05;;;9.60;99.90;;;-144.20;100.00;62730.56;4171758;28;20385;-74
2023/12/24 06:54:47;;;;;;;29.08;4.85;;;9.60;99.90;;;-144.20;100.00;62730.56;4172950;28;20056;-73
2023/12/24 06:56:48;;;;;;;32.47;5.70;;;9.60;99.90;;;-144.20;100.00;62730.56;4173750;28;20053;-73
2023/12/24 06:58:49;;;;;;;32.58;5.13;;;9.60;99.90;;;-144.20;100.00;62730.56;4172304;28;20033;-74
2023/12/24 07:00:50;;;;;;;30.67;4.95;;;9.60;99.90;;;-144.20;100.00;62730.56;4153107;28;20029;-73
2023/12/24 07:02:51;;;;;;;38.45;5.82;;;9.60;99.90;;;-144.20;100.00;62730.56;4168453;28;20033;-73
2023/12/24 07:04:51;;;;;;;25.58;4.55;;;9.60;99.90;;;-144.20;100.00;62730.56;4168845;28;20052;-74
2023/12/24 07:06:52;;;;;;;32.60;4.97;;;9.50;99.90;;;-144.20;100.00;62730.56;4192396;28;20029;-73
2023/12/24 07:08:53;;;;;;;26.95;5.50;;;9.60;99.90;;;-144.20;100.00;62730.56;4169928;28;20036;-74
2023/12/24 07:10:54;;;;;;;30.30;5.88;;;9.60;99.90;;;-144.20;100.00;62730.56;4170785;28;20033;-73
2023/12/24 07:12:55;;;;;;;33.13;5.50;;;9.70;99.90;;;-144.20;100.00;62730.56;4170579;28;20083;-74
2023/12/24 07:14:56;;;;;;;32.55;5.30;;;9.70;99.90;;;-144.20;100.00;62730.56;4167416;28;20087;-74
2023/12/24 07:16:56;;;;;;;33.88;5.68;;;9.70;99.90;;;-144.20;100.00;62730.56;4162499;28;20026;-74
2023/12/24 07:18:57;;;;;;;35.80;5.18;;;9.70;99.90;;;-144.20;100.00;62730.56;4169287;28;20050;-74
2023/12/24 07:20:58;;;;;;;45.25;6.75;;;9.70;99.90;;;-144.20;100.00;62730.56;4152894;28;20034;-74
2023/12/24 07:22:59;;;;;;;31.90;5.18;;;9.70;99.90;;;-144.20;100.00;62730.56;4169526;28;20527;-74
2023/12/24 07:25:00;;;;;;;32.55;5.15;;;9.80;99.90;;;-144.20;100.00;62730.56;4170545;28;20420;-73
2023/12/24 07:27:00;;;;;;;34.90;5.82;;;9.80;99.90;;;-144.20;100.00;62730.56;4170593;28;20401;-74
2023/12/24 07:29:02;;;;;;;36.72;6.22;;;9.80;99.90;;;-144.20;100.00;62730.56;4170624;28;20389;-73
2023/12/24 07:31:03;;;;;;;32.33;5.32;;;9.70;99.90;;;-144.20;100.00;62730.56;4169185;28;20365;-74
2023/12/24 07:33:05;;;;;;;31.33;5.28;;;9.80;99.90;;;-144.20;100.00;62730.56;4170514;28;20026;-73
2023/12/24 07:35:06;;;;;;;55.28;6.55;;;9.70;99.90;;;-144.20;100.00;62730.56;4182245;28;20025;-73
2023/12/24 07:37:07;;;;;;;46.33;5.13;;;9.70;99.90;;;-144.20;100.00;62730.56;4166880;28;20057;-73
2023/12/24 07:39:08;;;;;;;29.33;4.50;;;9.80;99.90;;;-144.20;100.00;62730.56;4170833;28;20075;-73
2023/12/24 07:41:09;;;;;;;33.42;6.68;;;9.80;99.90;;;-144.20;100.00;62730.56;4170392;28;20026;-74
2023/12/24 07:43:10;;;;;;;37.83;5.53;;;9.80;99.90;;;-144.20;100.00;62730.56;4169173;28;20052;-74
2023/12/24 07:45:11;;;;;;;27.50;5.10;;;9.80;99.90;;;-144.20;100.00;62730.56;4169881;28;20022;-74
2023/12/24 07:47:12;;;;;;;42.53;6.35;;;9.90;99.90;;;-144.20;100.00;62730.56;4169491;28;20112;-74
2023/12/24 07:49:13;;;;;;;34.72;5.47;;;9.90;99.90;;;-144.20;100.00;62730.56;4169119;28;20037;-74
2023/12/24 07:51:14;;;;;;;36.53;12.68;;;9.90;99.90;;;-144.20;100.00;62730.56;4185642;28;20032;-74
2023/12/24 07:53:14;;;;;;;66.75;29.70;;;9.90;99.90;;;-144.20;100.00;62730.56;4169491;28;20026;-73
2023/12/24 07:55:15;;;;;;;38.22;9.95;;;9.90;99.90;;;-144.20;100.00;62730.56;4168417;28;20033;-74
2023/12/24 07:57:17;;;;;;;30.98;7.03;;;9.90;99.90;;;-144.20;100.00;62730.56;4169040;28;20057;-74
2023/12/24 07:59:17;;;;;;;27.30;6.15;;;9.90;99.90;;;-144.20;100.00;62730.56;4169102;28;20037;-74
2023/12/24 08:01:18;;;;;;;34.95;6.53;;;10.00;99.90;;;-144.20;100.00;62730.56;4169793;28;20028;-74
2023/12/24 08:03:19;;;;;;;41.05;7.35;;;10.00;99.90;;;-144.20;100.00;62730.56;4168750;28;20060;-73
2023/12/24 08:05:20;;;;;;;32.83;5.57;;;10.10;99.90;;;-144.20;100.00;62730.56;4173433;28;20014;-74
2023/12/24 08:07:23;;;;;;;27.58;6.65;;;10.10;99.90;;;-144.20;100.00;62730.56;4195601;28;20028;-74
2023/12/24 08:09:25;;;;;;;38.53;8.13;;;10.10;99.90;;;-144.20;100.00;62730.56;4152330;28;20033;-74
2023/12/24 08:11:26;;;;;;;36.92;7.75;;;10.20;99.90;;;-144.20;100.00;62730.56;4157428;28;20525;-74
2023/12/24 08:13:27;;;;;;;30.75;6.15;;;10.20;99.90;;;-144.20;100.00;62730.56;4168720;28;20018;-74